sensor_id;sensor_type;location;lat;lon;timestamp;P1;durP1;ratioP1;P2;durP2;ratioP2
66741;SDS011;53654;54.152;19.432;2023-08-21T00:00:02;7.90;;;7.30;;
66741;SDS011;53654;54.152;19.432;2023-08-21T00:02:32;7.40;;;7.00;;
66741;SDS011;53654;54.152;19.432;2023-08-21T00:05:00;7.80;;;7.20;;
66741;SDS011;53654;54.152;19.432;2023-08-21T00:07:28;8.00;;;7.40;;
66741;SDS011;53654;54.152;19.432;2023-08-21T00:09:56;8.30;;;7.70;;
66741;SDS011;53654;54.152;19.432;2023-08-21T00:12:24;8.30;;;7.70;;
66741;SDS011;53654;54.152;19.432;2023-08-21T00:14:52;8.30;;;7.70;;
66741;SDS011;53654;54.152;19.432;2023-08-21T00:17:21;8.00;;;7.50;;
66741;SDS011;53654;54.152;19.432;2023-08-21T00:19:49;8.60;;;8.00;;
66741;SDS011;53654;54.152;19.432;2023-08-21T00:22:17;8.60;;;8.00;;
66741;SDS011;53654;54.152;19.432;2023-08-21T00:24:45;8.50;;;7.90;;
66741;SDS011;53654;54.152;19.432;2023-08-21T00:27:13;9.20;;;8.60;;
66741;SDS011;53654;54.152;19.432;2023-08-21T00:29:41;9.00;;;8.40;;
66741;SDS011;53654;54.152;19.432;2023-08-21T00:32:10;9.00;;;8.40;;
66741;SDS011;53654;54.152;19.432;2023-08-21T00:34:40;9.40;;;8.70;;
66741;SDS011;53654;54.152;19.432;2023-08-21T00:37:08;10.10;;;9.30;;
66741;SDS011;53654;54.152;19.432;2023-08-21T00:39:36;9.20;;;8.50;;
66741;SDS011;53654;54.152;19.432;2023-08-21T00:42:05;9.50;;;8.80;;
66741;SDS011;53654;54.152;19.432;2023-08-21T00:44:35;9.30;;;8.70;;
66741;SDS011;53654;54.152;19.432;2023-08-21T00:47:03;9.90;;;9.20;;
66741;SDS011;53654;54.152;19.432;2023-08-21T00:49:32;8.70;;;8.10;;
66741;SDS011;53654;54.152;19.432;2023-08-21T00:52:00;9.80;;;9.10;;
66741;SDS011;53654;54.152;19.432;2023-08-21T00:54:31;9.40;;;8.80;;
66741;SDS011;53654;54.152;19.432;2023-08-21T00:56:59;9.60;;;9.00;;
66741;SDS011;53654;54.152;19.432;2023-08-21T00:59:29;9.20;;;8.60;;
66741;SDS011;53654;54.152;19.432;2023-08-21T01:01:57;9.50;;;8.90;;
66741;SDS011;53654;54.152;19.432;2023-08-21T01:04:26;9.30;;;8.70;;
66741;SDS011;53654;54.152;19.432;2023-08-21T01:06:54;9.60;;;8.90;;
66741;SDS011;53654;54.152;19.432;2023-08-21T01:09:25;9.00;;;8.40;;
66741;SDS011;53654;54.152;19.432;2023-08-21T01:15:05;8.60;;;8.00;;
66741;SDS011;53654;54.152;19.432;2023-08-21T01:17:35;9.10;;;8.50;;
66741;SDS011;53654;54.152;19.432;2023-08-21T01:20:06;8.20;;;7.60;;
66741;SDS011;53654;54.152;19.432;2023-08-21T01:22:39;8.60;;;8.00;;
66741;SDS011;53654;54.152;19.432;2023-08-21T01:25:08;8.40;;;7.80;;
66741;SDS011;53654;54.152;19.432;2023-08-21T01:27:37;8.60;;;8.00;;
66741;SDS011;53654;54.152;19.432;2023-08-21T01:30:08;8.30;;;7.80;;
66741;SDS011;53654;54.152;19.432;2023-08-21T01:35:24;8.50;;;8.00;;
66741;SDS011;53654;54.152;19.432;2023-08-21T01:37:53;8.10;;;7.60;;
66741;SDS011;53654;54.152;19.432;2023-08-21T01:40:21;8.70;;;8.20;;
66741;SDS011;53654;54.152;19.432;2023-08-21T01:42:52;9.30;;;8.70;;
66741;SDS011;53654;54.152;19.432;2023-08-21T01:45:22;9.10;;;8.50;;
66741;SDS011;53654;54.152;19.432;2023-08-21T01:47:51;9.20;;;8.50;;
66741;SDS011;53654;54.152;19.432;2023-08-21T01:50:19;9.00;;;8.50;;
66741;SDS011;53654;54.152;19.432;2023-08-21T01:52:47;9.10;;;8.50;;
66741;SDS011;53654;54.152;19.432;2023-08-21T01:55:16;8.90;;;8.30;;
66741;SDS011;53654;54.152;19.432;2023-08-21T01:57:44;9.20;;;8.60;;
66741;SDS011;53654;54.152;19.432;2023-08-21T02:00:12;9.00;;;8.30;;
66741;SDS011;53654;54.152;19.432;2023-08-21T02:02:41;9.30;;;8.70;;
66741;SDS011;53654;54.152;19.432;2023-08-21T02:05:10;9.50;;;8.80;;
66741;SDS011;53654;54.152;19.432;2023-08-21T02:07:39;9.70;;;9.10;;
66741;SDS011;53654;54.152;19.432;2023-08-21T02:10:07;9.30;;;8.70;;
66741;SDS011;53654;54.152;19.432;2023-08-21T02:12:36;9.20;;;8.60;;
66741;SDS011;53654;54.152;19.432;2023-08-21T02:15:08;9.50;;;8.80;;
66741;SDS011;53654;54.152;19.432;2023-08-21T02:17:39;9.60;;;9.00;;
66741;SDS011;53654;54.152;19.432;2023-08-21T02:20:08;9.60;;;8.90;;
66741;SDS011;53654;54.152;19.432;2023-08-21T02:22:37;10.10;;;9.40;;
66741;SDS011;53654;54.152;19.432;2023-08-21T02:25:05;9.80;;;8.90;;
66741;SDS011;53654;54.152;19.432;2023-08-21T02:27:34;9.40;;;8.80;;
66741;SDS011;53654;54.152;19.432;2023-08-21T02:30:02;10.30;;;9.50;;
66741;SDS011;53654;54.152;19.432;2023-08-21T02:32:31;11.20;;;10.50;;
66741;SDS011;53654;54.152;19.432;2023-08-21T02:35:00;10.90;;;10.20;;
66741;SDS011;53654;54.152;19.432;2023-08-21T02:37:28;10.50;;;9.70;;
66741;SDS011;53654;54.152;19.432;2023-08-21T02:39:56;10.80;;;10.00;;
66741;SDS011;53654;54.152;19.432;2023-08-21T02:42:25;10.90;;;10.10;;
66741;SDS011;53654;54.152;19.432;2023-08-21T02:44:54;9.40;;;10.20;;
66741;SDS011;53654;54.152;19.432;2023-08-21T02:47:22;9.70;;;9.00;;
66741;SDS011;53654;54.152;19.432;2023-08-21T02:49:50;9.80;;;9.00;;
66741;SDS011;53654;54.152;19.432;2023-08-21T02:52:18;10.00;;;9.30;;
66741;SDS011;53654;54.152;19.432;2023-08-21T02:54:47;10.30;;;9.50;;
66741;SDS011;53654;54.152;19.432;2023-08-21T02:57:16;11.30;;;10.40;;
66741;SDS011;53654;54.152;19.432;2023-08-21T02:59:44;10.60;;;9.80;;
66741;SDS011;53654;54.152;19.432;2023-08-21T03:02:12;10.50;;;9.70;;
66741;SDS011;53654;54.152;19.432;2023-08-21T03:04:40;11.10;;;10.30;;
66741;SDS011;53654;54.152;19.432;2023-08-21T03:07:08;11.40;;;10.50;;
66741;SDS011;53654;54.152;19.432;2023-08-21T03:09:38;10.70;;;9.80;;
66741;SDS011;53654;54.152;19.432;2023-08-21T03:12:07;12.50;;;11.50;;
66741;SDS011;53654;54.152;19.432;2023-08-21T03:14:36;12.10;;;11.20;;
66741;SDS011;53654;54.152;19.432;2023-08-21T03:17:04;13.20;;;12.20;;
66741;SDS011;53654;54.152;19.432;2023-08-21T03:19:33;13.80;;;12.70;;
66741;SDS011;53654;54.152;19.432;2023-08-21T03:22:01;14.70;;;13.60;;
66741;SDS011;53654;54.152;19.432;2023-08-21T03:24:29;15.20;;;14.00;;
66741;SDS011;53654;54.152;19.432;2023-08-21T03:26:57;16.30;;;15.00;;
66741;SDS011;53654;54.152;19.432;2023-08-21T03:29:26;16.30;;;14.90;;
66741;SDS011;53654;54.152;19.432;2023-08-21T03:31:55;15.80;;;14.50;;
66741;SDS011;53654;54.152;19.432;2023-08-21T03:34:24;16.00;;;14.70;;
66741;SDS011;53654;54.152;19.432;2023-08-21T03:36:54;17.60;;;16.20;;
66741;SDS011;53654;54.152;19.432;2023-08-21T03:39:23;18.50;;;17.00;;
66741;SDS011;53654;54.152;19.432;2023-08-21T03:41:51;17.70;;;16.40;;
66741;SDS011;53654;54.152;19.432;2023-08-21T03:44:19;21.00;;;19.30;;
66741;SDS011;53654;54.152;19.432;2023-08-21T03:46:47;23.40;;;21.50;;
66741;SDS011;53654;54.152;19.432;2023-08-21T03:49:16;24.20;;;22.10;;
66741;SDS011;53654;54.152;19.432;2023-08-21T03:51:48;23.50;;;21.50;;
66741;SDS011;53654;54.152;19.432;2023-08-21T03:54:16;23.30;;;21.30;;
66741;SDS011;53654;54.152;19.432;2023-08-21T03:56:44;22.40;;;20.50;;
66741;SDS011;53654;54.152;19.432;2023-08-21T03:59:14;22.20;;;20.40;;
66741;SDS011;53654;54.152;19.432;2023-08-21T04:01:42;21.40;;;19.60;;
66741;SDS011;53654;54.152;19.432;2023-08-21T04:04:10;21.30;;;19.70;;
66741;SDS011;53654;54.152;19.432;2023-08-21T04:06:39;21.20;;;19.50;;
66741;SDS011;53654;54.152;19.432;2023-08-21T04:09:07;21.30;;;19.60;;
66741;SDS011;53654;54.152;19.432;2023-08-21T04:11:35;19.70;;;18.20;;
66741;SDS011;53654;54.152;19.432;2023-08-21T04:14:04;19.20;;;17.70;;
66741;SDS011;53654;54.152;19.432;2023-08-21T04:16:32;18.40;;;17.00;;
66741;SDS011;53654;54.152;19.432;2023-08-21T04:19:00;19.30;;;17.80;;
66741;SDS011;53654;54.152;19.432;2023-08-21T04:21:29;19.20;;;17.60;;
66741;SDS011;53654;54.152;19.432;2023-08-21T04:23:59;17.80;;;16.40;;
66741;SDS011;53654;54.152;19.432;2023-08-21T04:26:27;18.50;;;17.00;;
66741;SDS011;53654;54.152;19.432;2023-08-21T04:28:55;15.40;;;14.20;;
66741;SDS011;53654;54.152;19.432;2023-08-21T04:31:24;13.40;;;12.40;;
66741;SDS011;53654;54.152;19.432;2023-08-21T04:33:52;12.50;;;11.50;;
66741;SDS011;53654;54.152;19.432;2023-08-21T04:36:21;12.00;;;11.20;;
66741;SDS011;53654;54.152;19.432;2023-08-21T04:38:49;11.90;;;10.90;;
66741;SDS011;53654;54.152;19.432;2023-08-21T04:41:17;12.10;;;11.10;;
66741;SDS011;53654;54.152;19.432;2023-08-21T04:43:46;11.90;;;11.10;;
66741;SDS011;53654;54.152;19.432;2023-08-21T04:46:14;12.90;;;11.90;;
66741;SDS011;53654;54.152;19.432;2023-08-21T04:48:43;11.90;;;11.00;;
66741;SDS011;53654;54.152;19.432;2023-08-21T04:51:11;12.60;;;11.50;;
66741;SDS011;53654;54.152;19.432;2023-08-21T04:53:39;11.50;;;10.60;;
66741;SDS011;53654;54.152;19.432;2023-08-21T04:56:11;10.60;;;9.70;;
66741;SDS011;53654;54.152;19.432;2023-08-21T04:58:39;10.20;;;9.40;;
66741;SDS011;53654;54.152;19.432;2023-08-21T05:01:08;9.20;;;8.50;;
66741;SDS011;53654;54.152;19.432;2023-08-21T05:03:40;8.50;;;7.90;;
66741;SDS011;53654;54.152;19.432;2023-08-21T05:06:08;8.60;;;8.00;;
66741;SDS011;53654;54.152;19.432;2023-08-21T05:08:36;8.70;;;8.00;;
66741;SDS011;53654;54.152;19.432;2023-08-21T05:11:06;8.50;;;7.80;;
66741;SDS011;53654;54.152;19.432;2023-08-21T05:13:34;7.80;;;7.30;;
66741;SDS011;53654;54.152;19.432;2023-08-21T05:16:03;7.50;;;6.90;;
66741;SDS011;53654;54.152;19.432;2023-08-21T05:18:34;7.20;;;6.60;;
66741;SDS011;53654;54.152;19.432;2023-08-21T05:21:02;7.20;;;6.50;;
66741;SDS011;53654;54.152;19.432;2023-08-21T05:23:31;6.40;;;5.90;;
66741;SDS011;53654;54.152;19.432;2023-08-21T05:26:04;6.00;;;5.50;;
66741;SDS011;53654;54.152;19.432;2023-08-21T05:28:33;6.30;;;5.70;;
66741;SDS011;53654;54.152;19.432;2023-08-21T05:31:01;5.40;;;5.00;;
66741;SDS011;53654;54.152;19.432;2023-08-21T05:33:36;5.70;;;5.20;;
66741;SDS011;53654;54.152;19.432;2023-08-21T05:36:05;5.40;;;5.00;;
66741;SDS011;53654;54.152;19.432;2023-08-21T05:38:33;5.20;;;4.70;;
66741;SDS011;53654;54.152;19.432;2023-08-21T05:41:02;5.50;;;5.00;;
66741;SDS011;53654;54.152;19.432;2023-08-21T05:43:30;5.50;;;5.00;;
66741;SDS011;53654;54.152;19.432;2023-08-21T05:45:58;5.80;;;5.30;;
66741;SDS011;53654;54.152;19.432;2023-08-21T05:48:26;5.80;;;5.00;;
66741;SDS011;53654;54.152;19.432;2023-08-21T05:50:55;5.50;;;5.00;;
66741;SDS011;53654;54.152;19.432;2023-08-21T05:53:23;5.60;;;5.10;;
66741;SDS011;53654;54.152;19.432;2023-08-21T05:55:52;5.70;;;5.10;;
66741;SDS011;53654;54.152;19.432;2023-08-21T05:58:22;5.40;;;4.90;;
66741;SDS011;53654;54.152;19.432;2023-08-21T06:00:51;5.40;;;5.00;;
66741;SDS011;53654;54.152;19.432;2023-08-21T06:03:19;5.50;;;4.90;;
66741;SDS011;53654;54.152;19.432;2023-08-21T06:06:00;5.20;;;4.70;;
66741;SDS011;53654;54.152;19.432;2023-08-21T06:08:28;5.40;;;4.80;;
66741;SDS011;53654;54.152;19.432;2023-08-21T06:10:57;5.50;;;4.70;;
66741;SDS011;53654;54.152;19.432;2023-08-21T06:13:25;4.90;;;4.50;;
66741;SDS011;53654;54.152;19.432;2023-08-21T06:15:55;4.80;;;4.30;;
66741;SDS011;53654;54.152;19.432;2023-08-21T06:18:23;5.00;;;4.50;;
66741;SDS011;53654;54.152;19.432;2023-08-21T06:20:51;6.60;;;4.40;;
66741;SDS011;53654;54.152;19.432;2023-08-21T06:23:21;5.90;;;4.80;;
66741;SDS011;53654;54.152;19.432;2023-08-21T06:25:49;6.30;;;5.60;;
66741;SDS011;53654;54.152;19.432;2023-08-21T06:28:19;31.10;;;19.00;;
66741;SDS011;53654;54.152;19.432;2023-08-21T06:30:54;6.60;;;5.80;;
66741;SDS011;53654;54.152;19.432;2023-08-21T06:33:23;8.10;;;7.10;;
66741;SDS011;53654;54.152;19.432;2023-08-21T06:35:52;7.60;;;6.20;;
66741;SDS011;53654;54.152;19.432;2023-08-21T06:38:20;6.20;;;5.20;;
66741;SDS011;53654;54.152;19.432;2023-08-21T06:40:48;9.70;;;8.20;;
66741;SDS011;53654;54.152;19.432;2023-08-21T06:43:16;5.50;;;4.50;;
66741;SDS011;53654;54.152;19.432;2023-08-21T06:45:47;9.50;;;7.60;;
66741;SDS011;53654;54.152;19.432;2023-08-21T06:48:15;5.10;;;4.60;;
66741;SDS011;53654;54.152;19.432;2023-08-21T06:50:43;5.90;;;5.20;;
66741;SDS011;53654;54.152;19.432;2023-08-21T06:53:11;4.70;;;4.30;;
66741;SDS011;53654;54.152;19.432;2023-08-21T06:55:40;6.00;;;4.20;;
66741;SDS011;53654;54.152;19.432;2023-08-21T06:58:08;4.70;;;4.30;;
66741;SDS011;53654;54.152;19.432;2023-08-21T07:00:36;4.20;;;3.90;;
66741;SDS011;53654;54.152;19.432;2023-08-21T07:03:04;4.50;;;4.10;;
66741;SDS011;53654;54.152;19.432;2023-08-21T07:05:36;4.60;;;4.20;;
66741;SDS011;53654;54.152;19.432;2023-08-21T07:08:05;4.70;;;4.30;;
66741;SDS011;53654;54.152;19.432;2023-08-21T07:10:37;4.20;;;3.90;;
66741;SDS011;53654;54.152;19.432;2023-08-21T07:13:05;4.90;;;4.40;;
66741;SDS011;53654;54.152;19.432;2023-08-21T07:15:33;4.30;;;3.80;;
66741;SDS011;53654;54.152;19.432;2023-08-21T07:18:02;4.30;;;3.90;;
66741;SDS011;53654;54.152;19.432;2023-08-21T07:20:30;4.60;;;3.90;;
66741;SDS011;53654;54.152;19.432;2023-08-21T07:22:59;4.40;;;4.00;;
66741;SDS011;53654;54.152;19.432;2023-08-21T07:25:27;4.30;;;3.70;;
66741;SDS011;53654;54.152;19.432;2023-08-21T07:27:58;4.50;;;4.10;;
66741;SDS011;53654;54.152;19.432;2023-08-21T07:30:27;3.80;;;3.20;;
66741;SDS011;53654;54.152;19.432;2023-08-21T07:32:55;4.60;;;3.60;;
66741;SDS011;53654;54.152;19.432;2023-08-21T07:35:23;4.40;;;3.50;;
66741;SDS011;53654;54.152;19.432;2023-08-21T07:37:51;5.10;;;3.60;;
66741;SDS011;53654;54.152;19.432;2023-08-21T07:40:20;3.80;;;3.40;;
66741;SDS011;53654;54.152;19.432;2023-08-21T07:42:48;5.60;;;4.30;;
66741;SDS011;53654;54.152;19.432;2023-08-21T07:45:16;3.80;;;3.40;;
66741;SDS011;53654;54.152;19.432;2023-08-21T07:47:44;3.90;;;3.10;;
66741;SDS011;53654;54.152;19.432;2023-08-21T07:50:19;5.60;;;4.30;;
66741;SDS011;53654;54.152;19.432;2023-08-21T07:52:48;3.40;;;2.80;;
66741;SDS011;53654;54.152;19.432;2023-08-21T07:55:16;4.20;;;2.80;;
66741;SDS011;53654;54.152;19.432;2023-08-21T07:57:44;3.50;;;2.40;;
66741;SDS011;53654;54.152;19.432;2023-08-21T08:00:12;5.10;;;2.40;;
66741;SDS011;53654;54.152;19.432;2023-08-21T08:02:42;4.30;;;2.80;;
66741;SDS011;53654;54.152;19.432;2023-08-21T08:05:11;4.60;;;2.50;;
66741;SDS011;53654;54.152;19.432;2023-08-21T08:07:39;3.60;;;2.80;;
66741;SDS011;53654;54.152;19.432;2023-08-21T08:10:07;3.00;;;2.50;;
66741;SDS011;53654;54.152;19.432;2023-08-21T08:12:35;4.30;;;2.90;;
66741;SDS011;53654;54.152;19.432;2023-08-21T08:15:04;3.90;;;2.60;;
66741;SDS011;53654;54.152;19.432;2023-08-21T08:17:33;2.60;;;2.30;;
66741;SDS011;53654;54.152;19.432;2023-08-21T08:20:01;3.40;;;2.50;;
66741;SDS011;53654;54.152;19.432;2023-08-21T08:22:31;3.60;;;1.90;;
66741;SDS011;53654;54.152;19.432;2023-08-21T08:24:59;1.90;;;1.60;;
66741;SDS011;53654;54.152;19.432;2023-08-21T08:27:28;3.20;;;1.90;;
66741;SDS011;53654;54.152;19.432;2023-08-21T08:29:56;5.00;;;2.50;;
66741;SDS011;53654;54.152;19.432;2023-08-21T08:32:25;4.20;;;2.40;;
66741;SDS011;53654;54.152;19.432;2023-08-21T08:34:54;4.80;;;2.60;;
66741;SDS011;53654;54.152;19.432;2023-08-21T08:37:22;3.30;;;2.10;;
66741;SDS011;53654;54.152;19.432;2023-08-21T08:39:50;2.70;;;2.20;;
66741;SDS011;53654;54.152;19.432;2023-08-21T08:42:19;4.00;;;2.40;;
66741;SDS011;53654;54.152;19.432;2023-08-21T08:44:47;4.20;;;2.30;;
66741;SDS011;53654;54.152;19.432;2023-08-21T08:47:16;4.80;;;2.30;;
66741;SDS011;53654;54.152;19.432;2023-08-21T08:49:47;4.40;;;2.10;;
66741;SDS011;53654;54.152;19.432;2023-08-21T08:52:17;5.80;;;3.10;;
66741;SDS011;53654;54.152;19.432;2023-08-21T08:54:47;2.80;;;2.30;;
66741;SDS011;53654;54.152;19.432;2023-08-21T08:57:16;4.70;;;2.40;;
66741;SDS011;53654;54.152;19.432;2023-08-21T08:59:44;3.30;;;2.20;;
66741;SDS011;53654;54.152;19.432;2023-08-21T09:02:12;4.20;;;2.40;;
66741;SDS011;53654;54.152;19.432;2023-08-21T09:04:40;3.30;;;2.20;;
66741;SDS011;53654;54.152;19.432;2023-08-21T09:07:09;4.20;;;2.50;;
66741;SDS011;53654;54.152;19.432;2023-08-21T09:09:39;4.50;;;2.30;;
66741;SDS011;53654;54.152;19.432;2023-08-21T09:12:09;3.80;;;2.40;;
66741;SDS011;53654;54.152;19.432;2023-08-21T09:14:40;3.20;;;2.20;;
66741;SDS011;53654;54.152;19.432;2023-08-21T09:17:10;4.70;;;2.40;;
66741;SDS011;53654;54.152;19.432;2023-08-21T09:19:39;3.50;;;2.10;;
66741;SDS011;53654;54.152;19.432;2023-08-21T09:22:11;4.30;;;2.30;;
66741;SDS011;53654;54.152;19.432;2023-08-21T09:24:40;3.50;;;2.10;;
66741;SDS011;53654;54.152;19.432;2023-08-21T09:27:47;8.90;;;3.20;;
66741;SDS011;53654;54.152;19.432;2023-08-21T09:30:19;6.80;;;2.90;;
66741;SDS011;53654;54.152;19.432;2023-08-21T09:35:23;6.40;;;3.90;;
66741;SDS011;53654;54.152;19.432;2023-08-21T09:37:52;34.30;;;10.80;;
66741;SDS011;53654;54.152;19.432;2023-08-21T09:40:21;3.70;;;2.60;;
66741;SDS011;53654;54.152;19.432;2023-08-21T09:42:52;3.30;;;2.40;;
66741;SDS011;53654;54.152;19.432;2023-08-21T09:45:22;3.00;;;2.10;;
66741;SDS011;53654;54.152;19.432;2023-08-21T09:47:56;3.10;;;2.00;;
66741;SDS011;53654;54.152;19.432;2023-08-21T09:50:26;3.50;;;1.80;;
66741;SDS011;53654;54.152;19.432;2023-08-21T09:52:57;2.90;;;1.90;;
66741;SDS011;53654;54.152;19.432;2023-08-21T09:55:28;3.80;;;1.90;;
66741;SDS011;53654;54.152;19.432;2023-08-21T09:57:59;2.80;;;1.80;;
66741;SDS011;53654;54.152;19.432;2023-08-21T10:00:29;3.50;;;2.00;;
66741;SDS011;53654;54.152;19.432;2023-08-21T10:03:02;2.70;;;1.70;;
66741;SDS011;53654;54.152;19.432;2023-08-21T10:05:33;4.00;;;1.80;;
66741;SDS011;53654;54.152;19.432;2023-08-21T10:08:03;3.80;;;2.10;;
66741;SDS011;53654;54.152;19.432;2023-08-21T10:10:34;3.70;;;1.90;;
66741;SDS011;53654;54.152;19.432;2023-08-21T10:13:04;3.40;;;1.80;;
66741;SDS011;53654;54.152;19.432;2023-08-21T10:15:34;2.90;;;1.70;;
66741;SDS011;53654;54.152;19.432;2023-08-21T10:18:21;3.40;;;1.90;;
66741;SDS011;53654;54.152;19.432;2023-08-21T10:20:53;2.90;;;1.90;;
66741;SDS011;53654;54.152;19.432;2023-08-21T10:25:55;4.80;;;2.70;;
66741;SDS011;53654;54.152;19.432;2023-08-21T10:34:00;3.50;;;2.00;;
66741;SDS011;53654;54.152;19.432;2023-08-21T10:39:17;2.90;;;1.80;;
66741;SDS011;53654;54.152;19.432;2023-08-21T10:41:55;3.70;;;2.00;;
66741;SDS011;53654;54.152;19.432;2023-08-21T10:44:36;2.70;;;1.90;;
66741;SDS011;53654;54.152;19.432;2023-08-21T10:47:18;3.60;;;1.70;;
66741;SDS011;53654;54.152;19.432;2023-08-21T10:49:48;2.30;;;1.90;;
66741;SDS011;53654;54.152;19.432;2023-08-21T10:52:25;3.30;;;1.90;;
66741;SDS011;53654;54.152;19.432;2023-08-21T10:54:56;3.10;;;2.10;;
66741;SDS011;53654;54.152;19.432;2023-08-21T10:57:27;3.50;;;2.10;;
66741;SDS011;53654;54.152;19.432;2023-08-21T10:59:57;3.20;;;2.20;;
66741;SDS011;53654;54.152;19.432;2023-08-21T11:02:27;3.10;;;2.10;;
66741;SDS011;53654;54.152;19.432;2023-08-21T11:04:57;4.30;;;2.10;;
66741;SDS011;53654;54.152;19.432;2023-08-21T11:07:26;3.50;;;2.30;;
66741;SDS011;53654;54.152;19.432;2023-08-21T11:09:56;3.40;;;2.10;;
66741;SDS011;53654;54.152;19.432;2023-08-21T11:12:25;3.00;;;2.10;;
66741;SDS011;53654;54.152;19.432;2023-08-21T11:14:53;3.70;;;2.40;;
66741;SDS011;53654;54.152;19.432;2023-08-21T11:17:22;3.50;;;2.10;;
66741;SDS011;53654;54.152;19.432;2023-08-21T11:19:51;3.60;;;2.00;;
66741;SDS011;53654;54.152;19.432;2023-08-21T11:22:19;3.00;;;2.10;;
66741;SDS011;53654;54.152;19.432;2023-08-21T11:24:48;5.50;;;2.40;;
66741;SDS011;53654;54.152;19.432;2023-08-21T11:27:18;3.60;;;1.80;;
66741;SDS011;53654;54.152;19.432;2023-08-21T11:29:51;2.90;;;1.80;;
66741;SDS011;53654;54.152;19.432;2023-08-21T11:32:23;3.70;;;2.00;;
66741;SDS011;53654;54.152;19.432;2023-08-21T11:37:21;3.50;;;1.80;;
66741;SDS011;53654;54.152;19.432;2023-08-21T11:39:57;2.70;;;1.80;;
66741;SDS011;53654;54.152;19.432;2023-08-21T11:42:33;2.80;;;1.90;;
66741;SDS011;53654;54.152;19.432;2023-08-21T11:45:01;3.10;;;2.00;;
66741;SDS011;53654;54.152;19.432;2023-08-21T11:47:33;5.10;;;2.20;;
66741;SDS011;53654;54.152;19.432;2023-08-21T11:50:07;4.30;;;2.00;;
66741;SDS011;53654;54.152;19.432;2023-08-21T11:52:37;3.00;;;1.90;;
66741;SDS011;53654;54.152;19.432;2023-08-21T11:55:09;4.80;;;2.00;;
66741;SDS011;53654;54.152;19.432;2023-08-21T11:57:50;2.70;;;1.80;;
66741;SDS011;53654;54.152;19.432;2023-08-21T12:00:26;3.20;;;2.00;;
66741;SDS011;53654;54.152;19.432;2023-08-21T12:03:00;5.80;;;2.00;;
66741;SDS011;53654;54.152;19.432;2023-08-21T12:05:30;5.50;;;2.20;;
66741;SDS011;53654;54.152;19.432;2023-08-21T12:07:59;3.00;;;1.90;;
66741;SDS011;53654;54.152;19.432;2023-08-21T12:10:27;3.90;;;1.90;;
66741;SDS011;53654;54.152;19.432;2023-08-21T12:12:56;4.10;;;2.00;;
66741;SDS011;53654;54.152;19.432;2023-08-21T12:15:24;4.00;;;2.30;;
66741;SDS011;53654;54.152;19.432;2023-08-21T12:17:53;3.70;;;2.20;;
66741;SDS011;53654;54.152;19.432;2023-08-21T12:20:21;3.90;;;2.00;;
66741;SDS011;53654;54.152;19.432;2023-08-21T12:22:49;3.40;;;2.00;;
66741;SDS011;53654;54.152;19.432;2023-08-21T12:25:17;4.10;;;2.00;;
66741;SDS011;53654;54.152;19.432;2023-08-21T12:27:46;3.70;;;2.20;;
66741;SDS011;53654;54.152;19.432;2023-08-21T12:30:27;4.30;;;2.20;;
66741;SDS011;53654;54.152;19.432;2023-08-21T12:32:55;3.60;;;2.20;;
66741;SDS011;53654;54.152;19.432;2023-08-21T12:35:35;4.90;;;2.40;;
66741;SDS011;53654;54.152;19.432;2023-08-21T12:38:09;2.90;;;2.30;;
66741;SDS011;53654;54.152;19.432;2023-08-21T12:40:40;4.10;;;2.40;;
66741;SDS011;53654;54.152;19.432;2023-08-21T12:43:08;5.50;;;2.40;;
66741;SDS011;53654;54.152;19.432;2023-08-21T12:45:36;4.60;;;2.20;;
66741;SDS011;53654;54.152;19.432;2023-08-21T12:48:05;3.80;;;2.10;;
66741;SDS011;53654;54.152;19.432;2023-08-21T12:50:34;4.40;;;2.40;;
66741;SDS011;53654;54.152;19.432;2023-08-21T12:53:02;4.00;;;2.30;;
66741;SDS011;53654;54.152;19.432;2023-08-21T12:55:31;5.00;;;2.40;;
66741;SDS011;53654;54.152;19.432;2023-08-21T12:57:59;3.80;;;2.50;;
66741;SDS011;53654;54.152;19.432;2023-08-21T13:00:27;4.80;;;3.00;;
66741;SDS011;53654;54.152;19.432;2023-08-21T13:02:55;4.60;;;2.20;;
66741;SDS011;53654;54.152;19.432;2023-08-21T13:05:23;3.20;;;2.00;;
66741;SDS011;53654;54.152;19.432;2023-08-21T13:07:52;2.30;;;1.90;;
66741;SDS011;53654;54.152;19.432;2023-08-21T13:10:20;4.30;;;2.20;;
66741;SDS011;53654;54.152;19.432;2023-08-21T13:12:48;3.10;;;1.90;;
66741;SDS011;53654;54.152;19.432;2023-08-21T13:15:17;3.70;;;2.10;;
66741;SDS011;53654;54.152;19.432;2023-08-21T13:17:45;3.60;;;2.10;;
66741;SDS011;53654;54.152;19.432;2023-08-21T13:20:14;4.00;;;2.10;;
66741;SDS011;53654;54.152;19.432;2023-08-21T13:25:23;3.30;;;2.10;;
66741;SDS011;53654;54.152;19.432;2023-08-21T13:27:52;3.10;;;2.00;;
66741;SDS011;53654;54.152;19.432;2023-08-21T13:30:21;3.80;;;1.90;;
66741;SDS011;53654;54.152;19.432;2023-08-21T13:32:50;3.90;;;2.00;;
66741;SDS011;53654;54.152;19.432;2023-08-21T13:35:18;3.80;;;2.00;;
66741;SDS011;53654;54.152;19.432;2023-08-21T13:37:48;3.90;;;1.90;;
66741;SDS011;53654;54.152;19.432;2023-08-21T13:40:18;3.30;;;2.00;;
66741;SDS011;53654;54.152;19.432;2023-08-21T13:42:47;4.10;;;2.20;;
66741;SDS011;53654;54.152;19.432;2023-08-21T13:45:19;3.30;;;1.90;;
66741;SDS011;53654;54.152;19.432;2023-08-21T13:47:48;4.10;;;2.20;;
66741;SDS011;53654;54.152;19.432;2023-08-21T13:50:17;4.20;;;2.00;;
66741;SDS011;53654;54.152;19.432;2023-08-21T13:52:47;3.80;;;2.00;;
66741;SDS011;53654;54.152;19.432;2023-08-21T13:55:16;4.10;;;2.00;;
66741;SDS011;53654;54.152;19.432;2023-08-21T13:57:45;3.60;;;2.10;;
66741;SDS011;53654;54.152;19.432;2023-08-21T14:00:14;3.90;;;2.00;;
66741;SDS011;53654;54.152;19.432;2023-08-21T14:02:45;3.90;;;1.80;;
66741;SDS011;53654;54.152;19.432;2023-08-21T14:05:14;3.90;;;2.00;;
66741;SDS011;53654;54.152;19.432;2023-08-21T14:07:42;5.20;;;2.20;;
66741;SDS011;53654;54.152;19.432;2023-08-21T14:10:10;3.40;;;1.80;;
66741;SDS011;53654;54.152;19.432;2023-08-21T14:12:41;2.80;;;1.90;;
66741;SDS011;53654;54.152;19.432;2023-08-21T14:15:10;2.30;;;1.50;;
66741;SDS011;53654;54.152;19.432;2023-08-21T14:17:39;3.90;;;1.90;;
66741;SDS011;53654;54.152;19.432;2023-08-21T14:20:08;4.30;;;2.00;;
66741;SDS011;53654;54.152;19.432;2023-08-21T14:22:38;3.60;;;1.90;;
66741;SDS011;53654;54.152;19.432;2023-08-21T14:25:07;4.80;;;2.10;;
66741;SDS011;53654;54.152;19.432;2023-08-21T14:27:35;3.30;;;2.00;;
66741;SDS011;53654;54.152;19.432;2023-08-21T14:30:04;3.40;;;1.90;;
66741;SDS011;53654;54.152;19.432;2023-08-21T14:32:34;5.10;;;2.00;;
66741;SDS011;53654;54.152;19.432;2023-08-21T14:35:05;3.90;;;2.00;;
66741;SDS011;53654;54.152;19.432;2023-08-21T14:37:37;4.00;;;2.00;;
66741;SDS011;53654;54.152;19.432;2023-08-21T14:40:07;3.20;;;1.90;;
66741;SDS011;53654;54.152;19.432;2023-08-21T14:42:38;3.60;;;2.00;;
66741;SDS011;53654;54.152;19.432;2023-08-21T14:45:07;3.90;;;2.00;;
66741;SDS011;53654;54.152;19.432;2023-08-21T14:47:36;3.40;;;1.90;;
66741;SDS011;53654;54.152;19.432;2023-08-21T14:50:05;3.80;;;2.00;;
66741;SDS011;53654;54.152;19.432;2023-08-21T14:52:35;5.20;;;2.20;;
66741;SDS011;53654;54.152;19.432;2023-08-21T14:55:04;3.40;;;2.10;;
66741;SDS011;53654;54.152;19.432;2023-08-21T14:57:32;3.80;;;2.30;;
66741;SDS011;53654;54.152;19.432;2023-08-21T15:00:01;3.10;;;2.10;;
66741;SDS011;53654;54.152;19.432;2023-08-21T15:02:31;3.60;;;2.20;;
66741;SDS011;53654;54.152;19.432;2023-08-21T15:05:01;4.70;;;2.20;;
66741;SDS011;53654;54.152;19.432;2023-08-21T15:07:33;3.40;;;1.90;;